Time;durP1;ratioP1;P1;durP2;ratioP2;P2;SDS_P1;SDS_P2;PMS_P1;PMS_P2;Temp;Humidity;BMP_temperature;BMP_pressure;BME280_temperature;BME280_humidity;BME280_pressure;Samples;Min_cycle;Max_cycle;Signal;HPM_P1;HPM_P2
2022/08/27 00:00:41;;;;;;;;;;;16.30;99.90;;;;;;5014292;28;19964;-69
2022/08/27 00:03:08;;;;;;;;;;;16.30;99.90;;;;;;5011747;28;19968;-69
2022/08/27 00:05:35;;;;;;;;;;;16.30;99.90;;;;;;5012726;28;19921;-69
2022/08/27 00:08:03;;;;;;;;;;;16.20;99.90;;;;;;5011618;28;19921;-69
2022/08/27 00:10:31;;;;;;;;;;;16.30;99.90;;;;;;5013029;28;19921;-69
2022/08/27 00:12:57;;;;;;;;;;;16.30;99.90;;;;;;5027360;28;20388;-69
2022/08/27 00:15:24;;;;;;;;;;;16.30;99.90;;;;;;5011718;28;19921;-69
2022/08/27 00:17:51;;;;;;;;;;;16.30;99.90;;;;;;5012165;28;20288;-69
2022/08/27 00:20:19;;;;;;;;;;;16.30;99.90;;;;;;5011316;28;19972;-69
2022/08/27 00:22:45;;;;;;;;;;;16.30;99.90;;;;;;5025127;28;20015;-69
2022/08/27 00:25:12;;;;;;;;;;;16.30;99.90;;;;;;5042008;28;20004;-69
2022/08/27 00:27:39;;;;;;;;;;;16.30;99.90;;;;;;5029816;28;20352;-69
2022/08/27 00:30:08;;;;;;;;;;;16.20;99.90;;;;;;5028595;28;19959;-69
2022/08/27 00:32:35;;;;;;;;;;;16.20;99.90;;;;;;5028888;28;19924;-69
2022/08/27 00:35:02;;;;;;;;;;;16.20;99.90;;;;;;5021205;28;19921;-69
2022/08/27 00:37:30;;;;;;;;;;;16.20;99.90;;;;;;5012169;28;19927;-69
2022/08/27 00:39:56;;;;;;;;;;;16.10;99.90;;;;;;5013831;28;19922;-69
2022/08/27 00:42:23;;;;;;;;;;;16.10;99.90;;;;;;5028883;28;19921;-69
2022/08/27 00:44:50;;;;;;;;;;;16.10;99.90;;;;;;5028352;28;19924;-69
2022/08/27 00:47:19;;;;;;;;;;;16.10;99.90;;;;;;5030051;28;19948;-69
2022/08/27 00:49:47;;;;;;;;;;;16.00;99.90;;;;;;5029678;28;20277;-69
2022/08/27 00:52:26;;;;;;;;;;;15.90;99.90;;;;;;5012071;28;19929;-69
2022/08/27 00:54:55;;;;;;;;;;;15.90;99.90;;;;;;5018408;28;20411;-69
2022/08/27 00:57:22;;;;;;;;;;;15.80;99.90;;;;;;5028979;28;19924;-69
2022/08/27 00:59:49;;;;;;;;;;;15.80;99.90;;;;;;5016796;28;19956;-69
2022/08/27 01:02:19;;;;;;;;;;;15.70;99.90;;;;;;5012298;28;19928;-69
2022/08/27 01:04:48;;;;;;;;;;;15.70;99.90;;;;;;5012488;28;20328;-69
2022/08/27 01:07:15;;;;;;;;;;;15.70;99.90;;;;;;5013066;28;19960;-69
2022/08/27 01:09:42;;;;;;;;;;;15.70;99.90;;;;;;5024678;28;19921;-69
2022/08/27 01:12:10;;;;;;;;;;;15.70;99.90;;;;;;5010567;28;20005;-69
2022/08/27 01:14:38;;;;;;;;;;;15.70;99.90;;;;;;5018138;28;20013;-69
2022/08/27 01:17:05;;;;;;;;;;;15.70;99.90;;;;;;5017863;28;20369;-69
2022/08/27 01:19:51;;;;;;;;;;;15.70;99.90;;;;;;5010560;28;19943;-69
2022/08/27 01:22:25;;;;;;;;;;;15.60;99.90;;;;;;5019610;28;19921;-69
2022/08/27 01:24:57;;;;;;;;;;;15.60;99.90;;;;;;5004644;28;19921;-69
2022/08/27 01:27:26;;;;;;;;;;;15.50;99.90;;;;;;5011272;28;19921;-69
2022/08/27 01:29:53;;;;;;;;;;;15.50;99.90;;;;;;5019060;28;20007;-69
2022/08/27 01:32:21;;;;;;;;;;;15.50;99.90;;;;;;5030097;28;20448;-69
2022/08/27 01:34:48;;;;;;;;;;;15.40;99.90;;;;;;5015770;28;20391;-69
2022/08/27 01:37:15;;;;;;;;;;;15.40;99.90;;;;;;5015613;28;19922;-69
2022/08/27 01:39:49;;;;;;;;;;;15.30;99.90;;;;;;5015292;28;19922;-69
2022/08/27 01:42:19;;;;;;;;;;;15.30;99.90;;;;;;5015309;28;19928;-69
2022/08/27 01:44:52;;;;;;;;;;;15.30;99.90;;;;;;5015896;28;19928;-69
2022/08/27 01:47:19;;;;;;;;;;;15.20;99.90;;;;;;5026133;28;19925;-69
2022/08/27 01:49:46;;;;;;;;;;;15.20;99.90;;;;;;5016817;28;19927;-69
2022/08/27 01:52:13;;;;;;;;;;;15.10;99.90;;;;;;5015086;28;20424;-69
2022/08/27 01:54:40;;;;;;;;;;;15.10;99.90;;;;;;5004007;28;20404;-69
2022/08/27 01:57:08;;;;;;;;;;;15.10;99.90;;;;;;5016620;28;19929;-69
2022/08/27 01:59:35;;;;;;;;;;;15.00;99.90;;;;;;5019712;28;20420;-69
2022/08/27 02:02:05;;;;;;;;;;;15.00;99.90;;;;;;5033484;28;19975;-69
2022/08/27 02:04:32;;;;;;;;;;;15.00;99.90;;;;;;5032756;28;20467;-69
2022/08/27 02:06:59;;;;;;;;;;;14.90;99.90;;;;;;5027913;28;19921;-69
2022/08/27 02:09:26;;;;;;;;;;;14.90;99.90;;;;;;5015763;28;19921;-69
2022/08/27 02:11:53;;;;;;;;;;;14.90;99.90;;;;;;5026952;28;19967;-69
2022/08/27 02:14:20;;;;;;;;;;;14.80;99.90;;;;;;5017466;28;20004;-68
2022/08/27 02:16:46;;;;;;;;;;;14.80;99.90;;;;;;5028728;28;19956;-68
2022/08/27 02:19:18;;;;;;;;;;;14.80;99.90;;;;;;5016680;28;19925;-69
2022/08/27 02:21:45;;;;;;;;;;;14.70;99.90;;;;;;5015363;28;20313;-69
2022/08/27 02:24:12;;;;;;;;;;;14.70;99.90;;;;;;5024632;28;19928;-69
2022/08/27 02:26:39;;;;;;;;;;;14.70;99.90;;;;;;5031981;28;20317;-69
2022/08/27 02:29:06;;;;;;;;;;;14.60;99.90;;;;;;5030449;28;19927;-69
2022/08/27 02:31:33;;;;;;;;;;;14.60;99.90;;;;;;5029561;28;19922;-69
2022/08/27 02:34:00;;;;;;;;;;;14.60;99.90;;;;;;5030151;28;20387;-68
2022/08/27 02:36:27;;;;;;;;;;;14.60;99.90;;;;;;5014512;28;19975;-69
2022/08/27 02:38:55;;;;;;;;;;;14.60;99.90;;;;;;5015863;28;19929;-69
2022/08/27 02:41:21;;;;;;;;;;;14.50;99.90;;;;;;5008367;28;19933;-70
2022/08/27 02:43:48;;;;;;;;;;;14.50;99.90;;;;;;5014656;28;20028;-68
2022/08/27 02:46:15;;;;;;;;;;;14.50;99.90;;;;;;5013652;28;20028;-68
2022/08/27 02:48:43;;;;;;;;;;;14.50;99.90;;;;;;5014851;28;20273;-68
2022/08/27 02:51:10;;;;;;;;;;;14.40;99.90;;;;;;5017216;28;20372;-68
2022/08/27 02:53:37;;;;;;;;;;;14.40;99.90;;;;;;5007006;28;19921;-69
2022/08/27 02:56:04;;;;;;;;;;;14.40;99.90;;;;;;5033819;28;20016;-68
2022/08/27 02:58:32;;;;;;;;;;;14.40;99.90;;;;;;5031253;28;20015;-68
2022/08/27 03:01:00;;;;;;;;;;;14.50;99.90;;;;;;5016484;28;20293;-69
2022/08/27 03:03:30;;;;;;;;;;;14.50;99.90;;;;;;5015650;28;20269;-68
2022/08/27 03:05:57;;;;;;;;;;;14.50;99.90;;;;;;4997624;28;20278;-68
2022/08/27 03:08:25;;;;;;;;;;;14.50;99.90;;;;;;5016897;28;20348;-68
2022/08/27 03:10:54;;;;;;;;;;;14.60;99.90;;;;;;4998246;28;19921;-68
2022/08/27 03:13:21;;;;;;;;;;;14.60;99.90;;;;;;5014666;28;19921;-68
2022/08/27 03:15:47;;;;;;;;;;;14.70;99.90;;;;;;5024847;28;19944;-68
2022/08/27 03:18:19;;;;;;;;;;;14.60;99.90;;;;;;5034366;28;19952;-68
2022/08/27 03:20:49;;;;;;;;;;;14.60;99.90;;;;;;5030973;28;19960;-69
2022/08/27 03:23:17;;;;;;;;;;;14.60;99.90;;;;;;5014113;28;19928;-69
2022/08/27 03:25:50;;;;;;;;;;;14.70;99.90;;;;;;5021858;28;19975;-68
2022/08/27 03:28:18;;;;;;;;;;;14.70;99.90;;;;;;5015219;28;20394;-69
2022/08/27 03:30:50;;;;;;;;;;;14.60;99.90;;;;;;5030019;28;19921;-69
2022/08/27 03:33:18;;;;;;;;;;;14.60;99.90;;;;;;5034182;28;19976;-68
2022/08/27 03:35:46;;;;;;;;;;;14.60;99.90;;;;;;5031419;28;19921;-69
2022/08/27 03:38:17;;;;;;;;;;;14.60;99.90;;;;;;5005835;28;19921;-68
2022/08/27 03:40:44;;;;;;;;;;;14.60;99.90;;;;;;5013800;28;20395;-68
2022/08/27 03:43:11;;;;;;;;;;;14.60;99.90;;;;;;5015171;28;19925;-68
2022/08/27 03:45:38;;;;;;;;;;;14.60;99.90;;;;;;5023162;28;19932;-69
2022/08/27 03:48:25;;;;;;;;;;;14.60;99.90;;;;;;5031886;28;19928;-69
2022/08/27 03:50:52;;;;;;;;;;;14.60;99.90;;;;;;5031452;28;19987;-68
2022/08/27 03:53:19;;;;;;;;;;;14.60;99.90;;;;;;5033061;28;19924;-68
2022/08/27 03:55:46;;;;;;;;;;;14.60;99.90;;;;;;5023038;28;20008;-68
2022/08/27 03:58:13;;;;;;;;;;;14.60;99.90;;;;;;4996869;28;20004;-68
2022/08/27 04:00:40;;;;;;;;;;;14.50;99.90;;;;;;5014660;28;20016;-69
2022/08/27 04:03:07;;;;;;;;;;;14.50;99.90;;;;;;5013461;28;20273;-68
2022/08/27 04:05:36;;;;;;;;;;;14.50;99.90;;;;;;5018304;28;19920;-68
2022/08/27 04:08:02;;;;;;;;;;;14.50;99.90;;;;;;5023256;28;19964;-68
2022/08/27 04:10:29;;;;;;;;;;;14.50;99.90;;;;;;5012448;28;19921;-68
2022/08/27 04:13:00;;;;;;;;;;;14.40;99.90;;;;;;5013629;28;20281;-68
2022/08/27 04:15:27;;;;;;;;;;;14.40;99.90;;;;;;5015490;28;19932;-68
2022/08/27 04:17:54;;;;;;;;;;;14.40;99.90;;;;;;5032239;28;19960;-68
2022/08/27 04:20:20;;;;;;;;;;;14.40;99.90;;;;;;5031563;28;20007;-68
2022/08/27 04:23:01;;;;;;;;;;;14.40;99.90;;;;;;5031709;28;19928;-68
2022/08/27 04:25:28;;;;;;;;;;;14.30;99.90;;;;;;5040875;28;20297;-68
2022/08/27 04:27:55;;;;;;;;;;;14.20;99.90;;;;;;5031707;28;20444;-68
2022/08/27 04:30:21;;;;;;;;;;;14.20;99.90;;;;;;5031729;28;19979;-66
2022/08/27 04:32:49;;;;;;;;;;;14.20;99.90;;;;;;5032294;28;19931;-68
2022/08/27 04:35:16;;;;;;;;;;;14.20;99.90;;;;;;5031169;28;19967;-68
2022/08/27 04:37:43;;;;;;;;;;;14.20;99.90;;;;;;5023444;28;20008;-68
2022/08/27 04:40:10;;;;;;;;;;;14.20;99.90;;;;;;5014453;28;19921;-68
2022/08/27 04:42:37;;;;;;;;;;;14.20;99.90;;;;;;5031112;28;19921;-68
2022/08/27 04:45:04;;;;;;;;;;;14.20;99.90;;;;;;5030754;28;20016;-68
2022/08/27 04:47:31;;;;;;;;;;;14.20;99.90;;;;;;5019837;28;20013;-68
2022/08/27 04:49:58;;;;;;;;;;;14.20;99.90;;;;;;5011288;28;20024;-68
2022/08/27 04:52:25;;;;;;;;;;;14.20;99.90;;;;;;5022591;28;20321;-68
2022/08/27 04:54:52;;;;;;;;;;;14.20;99.90;;;;;;5013001;28;19953;-68
2022/08/27 04:57:19;;;;;;;;;;;14.20;99.90;;;;;;4996927;28;20462;-68
2022/08/27 04:59:46;;;;;;;;;;;14.20;99.90;;;;;;5013692;28;20292;-68
2022/08/27 05:02:13;;;;;;;;;;;14.20;99.90;;;;;;5011244;28;20043;-68
2022/08/27 05:04:41;;;;;;;;;;;14.20;99.90;;;;;;5012301;28;20016;-68
2022/08/27 05:07:08;;;;;;;;;;;14.20;99.90;;;;;;5014055;28;19925;-68
2022/08/27 05:09:35;;;;;;;;;;;14.20;99.90;;;;;;5029081;28;19964;-68
2022/08/27 05:12:02;;;;;;;;;;;14.30;99.90;;;;;;5029076;28;19921;-68
2022/08/27 05:14:29;;;;;;;;;;;14.30;99.90;;;;;;5012740;28;19921;-68
2022/08/27 05:16:56;;;;;;;;;;;14.40;99.90;;;;;;5028565;28;19921;-68
2022/08/27 05:19:23;;;;;;;;;;;14.30;99.90;;;;;;5027905;28;19921;-68
2022/08/27 05:21:51;;;;;;;;;;;14.30;99.90;;;;;;5030625;28;20011;-68
2022/08/27 05:24:18;;;;;;;;;;;14.40;99.90;;;;;;5030080;28;19952;-68
2022/08/27 05:26:44;;;;;;;;;;;14.40;99.90;;;;;;5022569;28;19925;-68
2022/08/27 05:29:12;;;;;;;;;;;14.50;99.90;;;;;;5016019;28;20463;-68
2022/08/27 05:31:39;;;;;;;;;;;14.60;99.90;;;;;;5016264;28;19929;-68
2022/08/27 05:34:06;;;;;;;;;;;14.60;99.90;;;;;;5011092;28;19921;-68
2022/08/27 05:36:39;;;;;;;;;;;14.70;99.90;;;;;;5011533;28;19968;-68
2022/08/27 05:39:14;;;;;;;;;;;14.70;99.90;;;;;;4999692;28;19960;-68
2022/08/27 05:41:41;;;;;;;;;;;14.70;99.90;;;;;;5019655;28;20009;-68
2022/08/27 05:44:10;;;;;;;;;;;14.80;99.90;;;;;;5024520;28;19921;-68
2022/08/27 05:46:57;;;;;;;;;;;14.80;99.90;;;;;;5031524;28;20391;-68
2022/08/27 05:49:24;;;;;;;;;;;14.80;99.90;;;;;;5030450;28;19921;-68
2022/08/27 05:51:51;;;;;;;;;;;14.90;99.90;;;;;;5026529;28;19921;-68
2022/08/27 05:54:18;;;;;;;;;;;14.90;99.90;;;;;;5024433;28;19921;-68
2022/08/27 05:56:45;;;;;;;;;;;15.00;99.90;;;;;;5016907;28;19929;-68
2022/08/27 06:02:00;;;;;;;;;;;15.20;99.90;;;;;;5029744;28;19943;-68
2022/08/27 06:04:27;;;;;;;;;;;15.20;99.90;;;;;;5028771;28;20015;-68
2022/08/27 06:06:54;;;;;;;;;;;15.30;99.90;;;;;;5023060;28;20359;-68
2022/08/27 06:09:22;;;;;;;;;;;15.40;99.90;;;;;;5012015;28;19928;-68
2022/08/27 06:11:49;;;;;;;;;;;15.40;99.90;;;;;;5000658;28;20003;-68
2022/08/27 06:14:16;;;;;;;;;;;15.50;99.90;;;;;;5030795;28;19948;-68
2022/08/27 06:16:43;;;;;;;;;;;15.60;99.90;;;;;;5014369;28;19922;-68
2022/08/27 06:19:12;;;;;;;;;;;15.70;99.90;;;;;;5033929;28;20015;-68
2022/08/27 06:21:40;;;;;;;;;;;15.70;99.90;;;;;;5033333;28;19968;-69
2022/08/27 06:24:07;;;;;;;;;;;15.80;99.90;;;;;;5033730;28;19921;-69
2022/08/27 06:26:33;;;;;;;;;;;15.80;99.90;;;;;;5039946;28;19927;-69
2022/08/27 06:29:04;;;;;;;;;;;15.90;99.90;;;;;;5015293;28;19922;-69
2022/08/27 06:31:30;;;;;;;;;;;15.90;99.90;;;;;;5016250;28;20011;-68
2022/08/27 06:33:58;;;;;;;;;;;16.00;99.90;;;;;;5017565;28;20025;-68
2022/08/27 06:36:34;;;;;;;;;;;16.00;99.90;;;;;;5013984;28;19922;-68
2022/08/27 06:39:01;;;;;;;;;;;16.00;99.90;;;;;;5015113;28;19922;-68
2022/08/27 06:41:28;;;;;;;;;;;16.00;99.90;;;;;;5015770;28;19921;-68
2022/08/27 06:43:55;;;;;;;;;;;16.00;99.90;;;;;;5019304;28;19976;-68
2022/08/27 06:46:23;;;;;;;;;;;16.00;99.90;;;;;;5015394;28;20008;-67
2022/08/27 06:48:50;;;;;;;;;;;16.10;99.90;;;;;;5024601;28;19925;-67
2022/08/27 06:51:18;;;;;;;;;;;16.20;99.90;;;;;;5014841;28;19922;-68
2022/08/27 06:53:46;;;;;;;;;;;16.20;99.90;;;;;;5025191;28;19960;-68
2022/08/27 06:56:13;;;;;;;;;;;16.30;99.90;;;;;;5021508;28;20008;-68
2022/08/27 06:58:40;;;;;;;;;;;16.30;99.90;;;;;;4998506;28;19921;-68
2022/08/27 07:01:11;;;;;;;;;;;16.40;99.90;;;;;;5020596;28;19928;-68
2022/08/27 07:03:38;;;;;;;;;;;16.50;99.90;;;;;;5019702;28;19937;-68
2022/08/27 07:06:06;;;;;;;;;;;16.60;99.90;;;;;;5013772;28;20254;-68
2022/08/27 07:08:33;;;;;;;;;;;16.60;99.90;;;;;;5014671;28;19972;-68
2022/08/27 07:11:00;;;;;;;;;;;16.70;99.90;;;;;;5017736;28;19928;-68
2022/08/27 07:13:28;;;;;;;;;;;16.90;99.90;;;;;;5031239;28;20394;-68
2022/08/27 07:15:55;;;;;;;;;;;17.00;99.90;;;;;;5017611;28;20411;-68
2022/08/27 07:18:25;;;;;;;;;;;17.00;99.90;;;;;;5021487;28;20336;-68
2022/08/27 07:20:53;;;;;;;;;;;17.20;99.90;;;;;;5013005;28;19921;-68
2022/08/27 07:23:20;;;;;;;;;;;17.30;99.90;;;;;;5033680;28;19968;-68
2022/08/27 07:25:47;;;;;;;;;;;17.30;99.90;;;;;;5025967;28;19921;-68
2022/08/27 07:28:14;;;;;;;;;;;17.30;99.90;;;;;;5024936;28;19925;-68
2022/08/27 07:30:41;;;;;;;;;;;17.30;99.90;;;;;;5033914;28;19983;-68
2022/08/27 07:33:08;;;;;;;;;;;17.40;99.90;;;;;;5021908;28;19968;-68
2022/08/27 07:35:35;;;;;;;;;;;17.40;99.90;;;;;;5045397;28;20520;-69
2022/08/27 07:38:02;;;;;;;;;;;17.40;99.90;;;;;;5023020;28;19922;-68
2022/08/27 07:40:29;;;;;;;;;;;17.40;99.90;;;;;;5029348;28;19930;-68
2022/08/27 07:45:46;;;;;;;;;;;17.40;99.90;;;;;;5012474;28;19925;-68
2022/08/27 07:48:14;;;;;;;;;;;17.30;99.90;;;;;;5020239;28;19925;-68
2022/08/27 07:50:42;;;;;;;;;;;17.40;99.90;;;;;;5031954;28;19921;-77
2022/08/27 07:53:08;;;;;;;;;;;17.40;99.90;;;;;;5028609;28;19929;-72
2022/08/27 07:55:36;;;;;;;;;;;17.40;99.90;;;;;;5027567;28;20437;-69
2022/08/27 07:58:03;;;;;;;;;;;17.40;99.90;;;;;;5033292;28;19964;-69
2022/08/27 08:00:36;;;;;;;;;;;17.40;99.90;;;;;;5015879;28;19972;-69
2022/08/27 08:03:03;;;;;;;;;;;17.30;99.90;;;;;;5017678;28;19995;-69
2022/08/27 08:05:30;;;;;;;;;;;17.40;99.90;;;;;;5012305;28;19979;-69
2022/08/27 08:07:57;;;;;;;;;;;17.50;99.90;;;;;;5012319;28;20004;-69
2022/08/27 08:10:24;;;;;;;;;;;17.50;99.90;;;;;;5014330;28;20032;-69
2022/08/27 08:12:50;;;;;;;;;;;17.60;99.90;;;;;;5012897;28;19929;-68
2022/08/27 08:15:17;;;;;;;;;;;17.70;99.90;;;;;;5013301;28;19928;-68
2022/08/27 08:17:44;;;;;;;;;;;17.70;99.90;;;;;;5013141;28;19921;-68
2022/08/27 08:20:12;;;;;;;;;;;17.70;99.90;;;;;;5013015;28;20015;-69
2022/08/27 08:22:58;;;;;;;;;;;17.70;99.90;;;;;;5024861;28;19920;-69
2022/08/27 08:25:25;;;;;;;;;;;17.80;99.90;;;;;;5033154;28;20334;-73
2022/08/27 08:27:52;;;;;;;;;;;17.90;99.90;;;;;;5032604;28;19976;-69
2022/08/27 08:30:19;;;;;;;;;;;18.00;99.90;;;;;;5031522;28;19972;-69
2022/08/27 08:32:46;;;;;;;;;;;18.10;99.90;;;;;;5021606;28;20323;-69
2022/08/27 08:35:13;;;;;;;;;;;18.10;99.90;;;;;;5012944;28;20297;-69
2022/08/27 08:37:43;;;;;;;;;;;18.20;99.90;;;;;;5012433;28;19925;-69
2022/08/27 08:40:23;;;;;;;;;;;18.30;99.90;;;;;;5011450;28;20726;-69
2022/08/27 08:42:51;;;;;;;;;;;18.40;99.90;;;;;;5039540;28;19964;-69
2022/08/27 08:45:19;;;;;;;;;;;18.40;99.90;;;;;;5032341;28;19921;-70
2022/08/27 08:47:47;;;;;;;;;;;18.50;99.90;;;;;;5031628;28;20019;-70
2022/08/27 08:50:18;;;;;;;;;;;18.50;99.90;;;;;;5029441;28;20035;-70
2022/08/27 08:53:00;;;;;;;;;;;18.70;99.90;;;;;;5030040;28;20269;-69
2022/08/27 08:55:41;;;;;;;;;;;18.80;99.90;;;;;;5032125;28;19960;-64
2022/08/27 08:58:17;;;;;;;;;;;18.80;99.90;;;;;;5031772;28;20394;-66
2022/08/27 09:00:45;;;;;;;;;;;19.00;99.90;;;;;;5032496;28;20011;-68
2022/08/27 09:03:12;;;;;;;;;;;19.00;99.90;;;;;;5025205;28;19921;-68
2022/08/27 09:05:41;;;;;;;;;;;19.00;99.90;;;;;;5024687;28;19956;-68
2022/08/27 09:08:12;;;;;;;;;;;19.00;99.90;;;;;;5035939;28;20040;-69
2022/08/27 09:11:04;;;;;;;;;;;19.10;99.90;;;;;;5011939;28;19921;-67
2022/08/27 09:13:36;;;;;;;;;;;19.10;99.90;;;;;;5043862;28;19921;-67
2022/08/27 09:16:03;;;;;;;;;;;19.10;99.90;;;;;;5032643;28;19921;-67
2022/08/27 09:18:33;;;;;;;;;;;19.10;99.90;;;;;;5031032;28;19921;-67
2022/08/27 09:21:03;;;;;;;;;;;19.20;99.90;;;;;;5015169;28;20055;-64
2022/08/27 09:23:44;;;;;;;;;;;19.30;99.90;;;;;;5024266;28;20391;-68
2022/08/27 09:26:22;;;;;;;;;;;19.40;99.90;;;;;;4992499;28;19932;-67
2022/08/27 09:31:39;;;;;;;;;;;19.70;99.90;;;;;;5004900;28;19932;-73
2022/08/27 09:34:06;;;;;;;;;;;19.80;99.90;;;;;;5029426;28;19921;-65
2022/08/27 09:36:33;;;;;;;;;;;19.90;99.90;;;;;;5031431;28;19928;-69
2022/08/27 09:39:03;;;;;;;;;;;20.00;99.90;;;;;;5011397;28;20270;-67
2022/08/27 09:41:31;;;;;;;;;;;20.00;99.90;;;;;;5026558;28;19921;-68
2022/08/27 09:43:59;;;;;;;;;;;20.00;99.90;;;;;;5027673;28;19928;-65
2022/08/27 09:46:27;;;;;;;;;;;20.00;99.90;;;;;;5031150;28;20356;-67
2022/08/27 09:48:53;;;;;;;;;;;20.10;99.90;;;;;;5033270;28;19943;-71
2022/08/27 09:51:21;;;;;;;;;;;20.10;99.90;;;;;;5031652;28;19921;-73
2022/08/27 09:54:01;;;;;;;;;;;20.20;99.90;;;;;;5033877;28;19925;-72
2022/08/27 09:56:36;;;;;;;;;;;20.20;99.90;;;;;;5035758;28;20020;-72
2022/08/27 09:59:07;;;;;;;;;;;20.20;99.90;;;;;;5035570;28;20012;-75
2022/08/27 10:01:35;;;;;;;;;;;20.20;99.90;;;;;;5050743;28;19943;-64
2022/08/27 10:04:10;;;;;;;;;;;20.20;99.90;;;;;;5023954;28;19921;-63
2022/08/27 10:06:37;;;;;;;;;;;20.30;99.90;;;;;;5016241;28;19921;-65
2022/08/27 10:09:09;;;;;;;;;;;20.30;99.90;;;;;;5016048;28;19921;-63
2022/08/27 10:11:38;;;;;;;;;;;20.50;99.90;;;;;;5015998;28;19925;-67
2022/08/27 10:14:12;;;;;;;;;;;20.60;99.90;;;;;;5040051;28;19921;-70
2022/08/27 10:16:52;;;;;;;;;;;20.60;99.90;;;;;;5015345;28;19929;-71
2022/08/27 10:19:29;;;;;;;;;;;20.70;99.90;;;;;;5014196;28;19925;-67
2022/08/27 10:21:59;;;;;;;;;;;20.80;99.90;;;;;;5015503;28;20020;-66
2022/08/27 10:24:34;;;;;;;;;;;20.90;99.90;;;;;;5013448;28;20008;-66
2022/08/27 10:27:08;;;;;;;;;;;20.90;99.90;;;;;;5033885;28;19935;-63
2022/08/27 10:29:40;;;;;;;;;;;21.10;99.90;;;;;;5034822;28;19921;-64
2022/08/27 10:32:07;;;;;;;;;;;21.20;99.90;;;;;;5034258;28;20019;-66
2022/08/27 10:34:40;;;;;;;;;;;21.20;99.90;;;;;;5028817;28;19928;-65
2022/08/27 10:37:15;;;;;;;;;;;21.30;99.90;;;;;;5014979;28;19944;-66
2022/08/27 10:40:05;;;;;;;;;;;21.40;99.90;;;;;;5015489;28;19925;-66
2022/08/27 10:42:35;;;;;;;;;;;21.50;99.90;;;;;;5015359;28;19921;-74
2022/08/27 10:45:11;;;;;;;;;;;21.50;99.90;;;;;;5018484;28;19961;-78
2022/08/27 10:47:48;;;;;;;;;;;21.70;99.90;;;;;;5014871;28;19928;-78
2022/08/27 10:50:33;;;;;;;;;;;21.70;99.90;;;;;;5013234;28;19921;-78
2022/08/27 10:53:03;;;;;;;;;;;21.60;99.90;;;;;;5022296;28;19964;-77
2022/08/27 10:55:40;;;;;;;;;;;21.50;99.90;;;;;;5014138;28;20313;-76
2022/08/27 10:58:26;;;;;;;;;;;21.60;99.90;;;;;;5014251;28;20388;-72
2022/08/27 11:01:05;;;;;;;;;;;21.60;99.90;;;;;;5019343;28;20328;-77
2022/08/27 11:03:33;;;;;;;;;;;21.70;99.90;;;;;;5025254;28;19970;-78
2022/08/27 11:06:04;;;;;;;;;;;21.70;99.90;;;;;;5015992;28;19925;-78
2022/08/27 11:08:39;;;;;;;;;;;21.70;99.90;;;;;;5024171;28;19927;-78
2022/08/27 11:11:13;;;;;;;;;;;21.80;99.90;;;;;;5013060;28;19928;-78
2022/08/27 11:13:59;;;;;;;;;;;21.80;99.90;;;;;;5011004;28;19928;-79
2022/08/27 11:16:34;;;;;;;;;;;21.80;99.90;;;;;;5013600;28;20518;-77
2022/08/27 11:19:02;;;;;;;;;;;21.80;99.90;;;;;;5018794;28;19961;-77
2022/08/27 11:21:34;;;;;;;;;;;21.90;99.90;;;;;;5017235;28;19964;-78
2022/08/27 11:24:07;;;;;;;;;;;21.90;99.90;;;;;;5026146;28;20671;-77
2022/08/27 11:26:33;;;;;;;;;;;21.90;99.90;;;;;;5017714;28;20036;-77
2022/08/27 11:29:01;;;;;;;;;;;22.20;99.90;;;;;;5013040;28;19980;-77
2022/08/27 11:31:33;;;;;;;;;;;22.30;99.90;;;;;;4997889;28;19925;-76
2022/08/27 11:34:09;;;;;;;;;;;22.40;99.90;;;;;;5024598;28;20076;-77
2022/08/27 11:36:39;;;;;;;;;;;22.60;99.90;;;;;;5015266;28;19921;-78
2022/08/27 11:39:18;;;;;;;;;;;22.70;99.90;;;;;;5014188;28;20027;-76
2022/08/27 11:41:56;;;;;;;;;;;22.80;99.90;;;;;;5013240;28;19953;-73
2022/08/27 11:44:24;;;;;;;;;;;22.80;99.90;;;;;;5031977;28;20011;-77
2022/08/27 11:46:55;;;;;;;;;;;22.80;99.90;;;;;;5023488;28;20024;-78
2022/08/27 11:49:22;;;;;;;;;;;22.70;99.90;;;;;;5025732;28;19931;-78
2022/08/27 11:51:54;;;;;;;;;;;22.70;99.90;;;;;;5020457;28;20365;-72
2022/08/27 11:54:30;;;;;;;;;;;22.80;99.90;;;;;;5027383;28;19939;-76
2022/08/27 11:56:57;;;;;;;;;;;22.90;99.90;;;;;;5026032;28;20013;-77
2022/08/27 11:59:27;;;;;;;;;;;23.00;99.90;;;;;;5051612;28;20004;-70
2022/08/27 12:01:55;;;;;;;;;;;23.00;99.90;;;;;;5013132;28;19944;-67
2022/08/27 12:04:24;;;;;;;;;;;23.10;99.90;;;;;;5024794;28;19925;-68
2022/08/27 12:06:58;;;;;;;;;;;23.20;99.90;;;;;;5031326;28;19924;-68
2022/08/27 12:09:25;;;;;;;;;;;23.40;99.90;;;;;;5014546;28;19929;-68
2022/08/27 12:11:55;;;;;;;;;;;23.50;99.90;;;;;;5012651;28;20444;-68
2022/08/27 12:14:31;;;;;;;;;;;23.50;99.90;;;;;;5019198;28;19986;-68
2022/08/27 12:17:07;;;;;;;;;;;23.60;99.90;;;;;;5031901;28;20362;-68
2022/08/27 12:19:43;;;;;;;;;;;23.50;99.90;;;;;;5033275;28;19974;-68
2022/08/27 12:22:13;;;;;;;;;;;23.40;99.90;;;;;;5020075;28;20343;-68
2022/08/27 12:24:50;;;;;;;;;;;23.40;99.90;;;;;;5030742;28;19929;-69
2022/08/27 12:27:23;;;;;;;;;;;23.50;99.90;;;;;;5032354;28;20011;-69
2022/08/27 12:29:51;;;;;;;;;;;23.60;99.90;;;;;;5032839;28;20390;-68
2022/08/27 12:32:37;;;;;;;;;;;23.70;99.90;;;;;;5023863;28;19968;-68
2022/08/27 12:35:18;;;;;;;;;;;23.70;99.90;;;;;;5020653;28;20035;-68
2022/08/27 12:37:49;;;;;;;;;;;23.80;99.90;;;;;;5015248;28;19925;-70
2022/08/27 12:40:23;;;;;;;;;;;24.00;99.90;;;;;;5023471;28;19921;-67
2022/08/27 12:42:50;;;;;;;;;;;24.00;99.90;;;;;;5032739;28;20429;-68
2022/08/27 12:45:23;;;;;;;;;;;24.00;99.90;;;;;;5025390;28;20330;-68
2022/08/27 12:47:50;;;;;;;;;;;23.90;99.40;;;;;;5011876;28;19921;-64
2022/08/27 12:50:21;;;;;;;;;;;23.60;99.40;;;;;;5017830;28;19967;-68
2022/08/27 12:53:03;;;;;;;;;;;23.30;99.80;;;;;;5026196;28;19921;-69
2022/08/27 12:55:30;;;;;;;;;;;23.30;99.90;;;;;;5034885;28;20000;-67
2022/08/27 12:58:15;;;;;;;;;;;23.20;99.50;;;;;;5020989;28;20276;-65
2022/08/27 13:00:53;;;;;;;;;;;23.10;98.80;;;;;;5029750;28;20284;-64
2022/08/27 13:03:30;;;;;;;;;;;23.10;99.30;;;;;;5019982;28;19925;-64
2022/08/27 13:05:59;;;;;;;;;;;23.20;99.90;;;;;;5016030;28;19921;-64
2022/08/27 13:08:30;;;;;;;;;;;23.30;99.90;;;;;;5028508;28;19927;-64
2022/08/27 13:11:07;;;;;;;;;;;23.30;99.60;;;;;;5014331;28;20009;-65
2022/08/27 13:13:38;;;;;;;;;;;23.40;99.90;;;;;;5028917;28;19971;-65
2022/08/27 13:16:05;;;;;;;;;;;23.50;99.60;;;;;;5024244;28;20024;-64
2022/08/27 13:18:32;;;;;;;;;;;23.70;99.90;;;;;;5011422;28;20012;-67
2022/08/27 13:21:07;;;;;;;;;;;23.80;98.90;;;;;;5035668;28;19921;-65
2022/08/27 13:23:34;;;;;;;;;;;24.00;97.00;;;;;;5026102;28;19929;-64
2022/08/27 13:26:02;;;;;;;;;;;23.90;98.40;;;;;;5033652;28;20048;-64
2022/08/27 13:28:29;;;;;;;;;;;23.80;97.00;;;;;;5017517;28;19922;-65
2022/08/27 13:30:56;;;;;;;;;;;23.70;96.90;;;;;;5018742;28;20638;-64
2022/08/27 13:33:24;;;;;;;;;;;23.60;98.00;;;;;;5014528;28;20389;-64
2022/08/27 13:35:51;;;;;;;;;;;23.50;97.80;;;;;;5013828;28;19932;-64
2022/08/27 13:38:19;;;;;;;;;;;23.50;98.00;;;;;;5031297;28;19943;-65
2022/08/27 13:40:55;;;;;;;;;;;23.50;97.60;;;;;;5031968;28;19925;-70
2022/08/27 13:43:42;;;;;;;;;;;23.60;98.60;;;;;;5032057;28;19976;-65
2022/08/27 13:46:11;;;;;;;;;;;23.70;97.30;;;;;;5033194;28;20016;-64
2022/08/27 13:48:41;;;;;;;;;;;23.70;97.90;;;;;;5035651;28;19927;-65
2022/08/27 13:51:08;;;;;;;;;;;23.80;98.10;;;;;;5018625;28;20359;-65
2022/08/27 13:56:27;;;;;;;;;;;24.00;96.60;;;;;;5015856;28;20007;-64
2022/08/27 13:58:55;;;;;;;;;;;24.10;95.00;;;;;;5031893;28;19939;-64
2022/08/27 14:01:27;;;;;;;;;;;24.10;97.10;;;;;;5028563;28;19924;-64
2022/08/27 14:03:56;;;;;;;;;;;23.90;99.00;;;;;;5035411;28;19921;-65
2022/08/27 14:06:32;;;;;;;;;;;23.80;99.40;;;;;;5024416;28;20375;-64
2022/08/27 14:09:27;;;;;;;;;;;23.70;99.90;;;;;;5015785;28;20361;-65
2022/08/27 14:12:04;;;;;;;;;;;23.70;99.70;;;;;;5031359;28;20364;-64
2022/08/27 14:14:35;;;;;;;;;;;23.60;99.80;;;;;;5024855;28;19925;-66
2022/08/27 14:17:03;;;;;;;;;;;23.80;99.90;;;;;;5015378;28;19975;-64
2022/08/27 14:19:31;;;;;;;;;;;23.80;98.90;;;;;;5014056;28;20356;-64
2022/08/27 14:22:02;;;;;;;;;;;23.90;99.70;;;;;;4999547;28;19921;-65
2022/08/27 14:24:29;;;;;;;;;;;24.10;99.30;;;;;;5017238;28;19959;-66
2022/08/27 14:27:01;;;;;;;;;;;24.20;99.10;;;;;;5016266;28;19925;-63
2022/08/27 14:29:28;;;;;;;;;;;24.30;98.00;;;;;;5011556;28;20033;-63
2022/08/27 14:31:54;;;;;;;;;;;24.40;98.10;;;;;;5046882;28;20394;-63
2022/08/27 14:34:21;;;;;;;;;;;24.40;97.60;;;;;;5014954;28;20008;-62
2022/08/27 14:36:48;;;;;;;;;;;24.30;97.20;;;;;;5034549;28;19951;-63
2022/08/27 14:39:20;;;;;;;;;;;24.10;97.80;;;;;;5025129;28;19925;-63
2022/08/27 14:41:52;;;;;;;;;;;23.90;98.90;;;;;;5018715;28;19929;-63